createdAt,value
2022-10-26T00:01:40.461Z,99835.09
2022-10-26T00:04:08.525Z,99835.13
2022-10-26T00:06:36.997Z,99843.41
2022-10-26T00:09:08.419Z,99843.00
2022-10-26T00:11:36.634Z,99835.41
2022-10-26T00:14:05.222Z,99842.19
2022-10-26T00:16:33.246Z,99833.00
2022-10-26T00:19:02.638Z,99841.44
2022-10-26T00:21:30.676Z,99851.50
2022-10-26T00:24:00.867Z,99841.25
2022-10-26T00:26:29.188Z,99847.81
2022-10-26T00:28:58.202Z,99842.69
2022-10-26T00:31:26.473Z,99860.16
2022-10-26T00:33:54.943Z,99858.69
2022-10-26T00:36:25.915Z,99858.47
2022-10-26T00:38:55.942Z,99858.25
2022-10-26T00:41:26.055Z,99859.88
2022-10-26T00:43:57.734Z,99854.13
2022-10-26T00:46:28.114Z,99852.06
2022-10-26T00:49:00.089Z,99851.19
2022-10-26T00:51:33.716Z,99854.25
2022-10-26T00:54:04.339Z,99863.50
2022-10-26T00:56:33.210Z,99853.41
2022-10-26T00:59:05.117Z,99860.56
2022-10-26T01:01:35.200Z,99866.09
2022-10-26T01:04:03.486Z,99861.13
2022-10-26T01:06:35.261Z,99864.63
2022-10-26T01:09:03.367Z,99867.53
2022-10-26T01:11:31.464Z,99870.19
2022-10-26T01:14:02.987Z,99865.66
2022-10-26T01:16:44.666Z,99865.66
2022-10-26T01:19:57.502Z,99873.09
2022-10-26T01:22:45.729Z,99877.75
2022-10-26T01:25:26.052Z,99873.03
2022-10-26T01:27:54.780Z,99876.09
2022-10-26T01:30:35.100Z,99872.56
2022-10-26T01:33:30.859Z,99879.31
2022-10-26T01:36:07.811Z,99881.13
2022-10-26T01:38:48.652Z,99882.34
2022-10-26T01:41:23.916Z,99883.53
2022-10-26T01:43:56.838Z,99883.94
2022-10-26T01:46:29.864Z,99885.16
2022-10-26T01:49:02.467Z,99891.31
2022-10-26T01:51:31.687Z,99887.41
2022-10-26T01:54:00.099Z,99882.25
2022-10-26T01:56:31.805Z,99888.56
2022-10-26T01:59:26.800Z,99892.06
2022-10-26T02:02:28.953Z,99892.06
2022-10-26T02:05:29.517Z,99899.28
2022-10-26T02:08:05.524Z,99891.03
2022-10-26T02:10:44.675Z,99898.03
2022-10-26T02:13:20.988Z,99902.34
2022-10-26T02:15:55.142Z,99893.50
2022-10-26T02:18:33.175Z,99896.19
2022-10-26T02:21:07.186Z,99897.81
2022-10-26T02:23:38.939Z,99899.03
2022-10-26T02:26:11.619Z,99906.59
2022-10-26T02:28:44.101Z,99909.06
2022-10-26T02:31:13.787Z,99911.31
2022-10-26T02:36:22.292Z,99924.28
2022-10-26T02:38:52.668Z,99926.53
2022-10-26T02:41:23.027Z,99920.50
2022-10-26T02:43:55.603Z,99926.03
2022-10-26T02:46:26.190Z,99922.31
2022-10-26T02:48:55.709Z,99923.94
2022-10-26T02:51:31.565Z,99933.63
2022-10-26T02:54:03.984Z,99930.72
2022-10-26T02:56:41.663Z,99925.38
2022-10-26T02:59:13.593Z,99924.56
2022-10-26T03:01:43.091Z,99923.25
2022-10-26T03:04:12.557Z,99926.97
2022-10-26T03:06:40.737Z,99930.25
2022-10-26T03:09:08.843Z,99925.94
2022-10-26T03:11:36.879Z,99928.84
2022-10-26T03:14:05.138Z,99929.44
2022-10-26T03:16:33.061Z,99931.09
2022-10-26T03:19:01.052Z,99929.00
2022-10-26T03:21:33.730Z,99931.91
2022-10-26T03:24:03.381Z,99927.38
2022-10-26T03:26:31.371Z,99929.22
2022-10-26T03:29:00.460Z,99932.72
2022-10-26T03:31:28.691Z,99939.31
2022-10-26T03:33:56.676Z,99940.94
2022-10-26T03:36:24.856Z,99940.72
2022-10-26T03:38:54.987Z,99938.03
2022-10-26T03:41:23.168Z,99941.38
2022-10-26T03:43:55.988Z,99953.09
2022-10-26T03:46:24.012Z,99946.69
2022-10-26T03:48:52.181Z,99950.75
2022-10-26T03:51:20.322Z,99952.22
2022-10-26T03:53:48.399Z,99949.72
2022-10-26T03:56:17.834Z,99953.25
2022-10-26T03:59:08.551Z,99951.19
2022-10-26T04:01:36.605Z,99955.72
2022-10-26T04:04:04.688Z,99956.75
2022-10-26T04:06:32.783Z,99966.66
2022-10-26T04:09:02.564Z,99961.09
2022-10-26T04:11:40.846Z,99962.31
2022-10-26T04:14:09.186Z,99957.97
2022-10-26T04:16:37.090Z,99959.28
2022-10-26T04:19:05.085Z,99970.00
2022-10-26T04:21:33.368Z,99963.19
2022-10-26T04:24:03.369Z,99972.50
2022-10-26T04:26:31.543Z,99970.41
2022-10-26T04:29:00.984Z,99984.63
2022-10-26T04:31:30.485Z,99976.00
2022-10-26T04:33:58.511Z,99976.44
2022-10-26T04:36:26.575Z,99994.53
2022-10-26T04:38:54.549Z,99987.09
2022-10-26T04:41:25.262Z,99988.16
2022-10-26T04:43:53.393Z,99991.44
2022-10-26T04:46:22.773Z,100000.50
2022-10-26T04:48:50.792Z,99995.34
2022-10-26T04:51:19.053Z,100003.81
2022-10-26T04:53:47.509Z,99997.47
2022-10-26T04:56:15.736Z,100006.50
2022-10-26T04:58:43.809Z,99988.84
2022-10-26T05:01:11.886Z,100008.97
2022-10-26T05:03:41.479Z,100002.78
2022-10-26T05:06:09.505Z,100000.13
2022-10-26T05:08:37.729Z,100005.25
2022-10-26T05:11:06.013Z,99998.47
2022-10-26T05:13:34.140Z,100007.13
2022-10-26T05:16:02.238Z,100006.34
2022-10-26T05:18:30.541Z,100013.72
2022-10-26T05:20:59.888Z,100012.09
2022-10-26T05:23:29.151Z,100009.63
2022-10-26T05:25:58.188Z,100014.97
2022-10-26T05:28:26.159Z,100014.97
2022-10-26T05:30:54.237Z,100022.59
2022-10-26T05:33:22.369Z,100022.81
2022-10-26T05:35:50.637Z,100018.88
2022-10-26T05:38:20.325Z,100025.06
2022-10-26T05:40:49.807Z,100030.19
2022-10-26T05:43:20.323Z,100020.13
2022-10-26T05:45:48.904Z,100028.78
2022-10-26T05:48:17.113Z,100029.59
2022-10-26T05:50:47.045Z,100031.66
2022-10-26T05:53:15.208Z,100031.44
2022-10-26T05:55:45.403Z,100035.97
2022-10-26T05:58:15.379Z,100048.78
2022-10-26T06:00:53.544Z,100036.25
2022-10-26T06:03:45.068Z,100054.34
2022-10-26T06:06:14.718Z,100060.31
2022-10-26T06:08:43.606Z,100059.94
2022-10-26T06:11:13.935Z,100054.97
2022-10-26T06:13:42.950Z,100067.09
2022-10-26T06:16:30.212Z,100068.34
2022-10-26T06:19:10.381Z,100073.28
2022-10-26T06:21:58.225Z,100073.72
2022-10-26T06:24:37.432Z,100078.03
2022-10-26T06:27:19.591Z,100078.03
2022-10-26T06:29:56.818Z,100084.66
2022-10-26T06:32:26.762Z,100087.72
2022-10-26T06:35:04.873Z,100084.66
2022-10-26T06:37:37.266Z,100096.38
2022-10-26T06:40:07.611Z,100095.56
2022-10-26T06:42:41.451Z,100092.88
2022-10-26T06:47:49.185Z,100096.78
2022-10-26T06:50:45.159Z,100108.50
2022-10-26T06:53:23.076Z,100101.31
2022-10-26T06:55:52.335Z,100120.88
2022-10-26T06:58:24.860Z,100114.25
2022-10-26T07:00:55.543Z,100128.09
2022-10-26T07:03:24.282Z,100131.97
2022-10-26T07:05:52.512Z,100134.66
2022-10-26T07:08:21.092Z,100134.25
2022-10-26T07:10:49.125Z,100144.97
2022-10-26T07:13:17.847Z,100145.53
2022-10-26T07:15:48.153Z,100153.97
2022-10-26T07:18:16.115Z,100151.31
2022-10-26T07:20:44.217Z,100153.75
2022-10-26T07:23:12.240Z,100156.44
2022-10-26T07:25:41.748Z,100158.09
2022-10-26T07:28:11.242Z,100155.84
2022-10-26T07:30:41.303Z,100172.31
2022-10-26T07:33:12.592Z,100163.44
2022-10-26T07:35:41.452Z,100168.00
2022-10-26T07:38:13.936Z,100163.06
2022-10-26T07:40:41.856Z,100161.19
2022-10-26T07:43:09.842Z,100161.16
2022-10-26T07:45:40.899Z,100171.22
2022-10-26T07:48:10.276Z,100169.16
2022-10-26T07:50:38.250Z,100174.31
2022-10-26T07:53:06.231Z,100170.81
2022-10-26T07:55:34.698Z,100182.75
2022-10-26T07:58:02.751Z,100182.75
2022-10-26T08:00:31.147Z,100187.72
2022-10-26T08:02:59.120Z,100182.13
2022-10-26T08:05:28.506Z,100186.69
2022-10-26T08:07:56.481Z,100185.84
2022-10-26T08:10:24.468Z,100186.69
2022-10-26T08:12:55.010Z,100193.88
2022-10-26T08:15:24.006Z,100189.28
2022-10-26T08:17:52.232Z,100192.16
2022-10-26T08:20:21.545Z,100194.19
2022-10-26T08:22:51.411Z,100199.50
2022-10-26T08:25:21.552Z,100206.91
2022-10-26T08:27:50.115Z,100207.66
2022-10-26T08:30:18.641Z,100211.13
2022-10-26T08:32:46.797Z,100212.34
2022-10-26T08:35:16.919Z,100220.63
2022-10-26T08:37:45.071Z,100222.25
2022-10-26T08:40:18.332Z,100222.25
2022-10-26T08:42:51.528Z,100224.25
2022-10-26T08:45:30.562Z,100231.47
2022-10-26T08:48:08.852Z,100230.63
2022-10-26T08:50:42.824Z,100232.88
2022-10-26T08:53:19.080Z,100239.06
2022-10-26T08:55:52.388Z,100249.34
2022-10-26T08:58:27.168Z,100248.91
2022-10-26T09:00:55.427Z,100251.00
2022-10-26T09:03:23.473Z,100249.34
2022-10-26T09:06:06.668Z,100256.38
2022-10-26T09:08:43.379Z,100258.22
2022-10-26T09:11:21.409Z,100260.88
2022-10-26T09:14:06.939Z,100262.88
2022-10-26T09:16:41.038Z,100256.94
2022-10-26T09:19:33.903Z,100276.31
2022-10-26T09:22:10.293Z,100267.00
2022-10-26T09:24:43.994Z,100271.13
2022-10-26T09:27:21.455Z,100267.09
2022-10-26T09:29:50.691Z,100274.94
2022-10-26T09:32:21.208Z,100280.91
2022-10-26T09:34:53.674Z,100274.91
2022-10-26T09:37:26.875Z,100276.91
2022-10-26T09:40:05.840Z,100285.56
2022-10-26T09:42:42.853Z,100282.06
2022-10-26T09:45:17.886Z,100290.56
2022-10-26T09:47:52.868Z,100289.75
2022-10-26T09:50:27.403Z,100288.09
2022-10-26T09:52:55.419Z,100294.50
2022-10-26T09:55:23.627Z,100292.25
2022-10-26T09:57:56.640Z,100297.00
2022-10-26T10:00:27.117Z,100298.63
2022-10-26T10:02:56.626Z,100304.38
2022-10-26T10:05:49.666Z,100308.03
2022-10-26T10:08:18.988Z,100306.00
2022-10-26T10:11:03.436Z,100317.34
2022-10-26T10:13:34.373Z,100324.13
2022-10-26T10:16:06.695Z,100319.97
2022-10-26T10:18:36.357Z,100321.22
2022-10-26T10:21:06.025Z,100328.66
2022-10-26T10:23:36.287Z,100329.50
2022-10-26T10:26:12.229Z,100325.75
2022-10-26T10:28:43.768Z,100331.69
2022-10-26T10:31:22.915Z,100327.16
2022-10-26T10:33:53.365Z,100334.00
2022-10-26T10:36:23.386Z,100329.44
2022-10-26T10:38:54.165Z,100334.66
2022-10-26T10:41:27.995Z,100337.72
2022-10-26T10:44:20.800Z,100337.78
2022-10-26T10:46:49.063Z,100341.44
2022-10-26T10:49:21.746Z,100344.53
2022-10-26T10:51:51.339Z,100344.13
2022-10-26T10:54:30.131Z,100344.97
2022-10-26T10:57:11.765Z,100345.78
2022-10-26T11:00:13.080Z,100347.22
2022-10-26T11:03:04.016Z,100348.19
2022-10-26T11:05:49.288Z,100352.69
2022-10-26T11:08:22.698Z,100365.72
2022-10-26T11:11:04.914Z,100364.91
2022-10-26T11:13:38.615Z,100368.81
2022-10-26T11:16:15.021Z,100365.31
2022-10-26T11:18:47.907Z,100366.72
2022-10-26T11:21:24.785Z,100375.00
2022-10-26T11:23:59.392Z,100373.78
2022-10-26T11:26:32.873Z,100383.13
2022-10-26T11:29:04.584Z,100380.44
2022-10-26T11:31:43.051Z,100380.81
2022-10-26T11:34:20.322Z,100385.53
2022-10-26T11:36:54.952Z,100382.63
2022-10-26T11:39:33.063Z,100385.31
2022-10-26T11:42:07.271Z,100388.59
2022-10-26T11:44:41.437Z,100389.41
2022-10-26T11:47:16.174Z,100394.78
2022-10-26T11:49:50.436Z,100388.59
2022-10-26T11:52:23.473Z,100390.47
2022-10-26T11:54:56.768Z,100387.78
2022-10-26T11:57:28.135Z,100389.66
2022-10-26T12:00:01.016Z,100389.06
2022-10-26T12:02:30.552Z,100388.38
2022-10-26T12:05:03.980Z,100398.25
2022-10-26T12:07:34.514Z,100397.22
2022-10-26T12:10:05.621Z,100397.66
2022-10-26T12:12:39.670Z,100400.56
2022-10-26T12:15:20.436Z,100401.59
2022-10-26T12:17:56.851Z,100398.38
2022-10-26T12:20:53.137Z,100409.78
2022-10-26T12:23:40.466Z,100408.81
2022-10-26T12:26:40.782Z,100410.06
2022-10-26T12:29:26.202Z,100413.38
2022-10-26T12:31:54.222Z,100413.63
2022-10-26T12:34:46.265Z,100412.81
2022-10-26T12:37:25.759Z,100415.09
2022-10-26T12:39:53.796Z,100423.59
2022-10-26T12:42:31.596Z,100419.44
2022-10-26T12:45:09.069Z,100424.59
2022-10-26T12:48:10.613Z,100422.56
2022-10-26T12:50:45.004Z,100429.38
2022-10-26T12:53:15.972Z,100425.63
2022-10-26T12:56:01.931Z,100429.75
2022-10-26T12:58:54.524Z,100433.91
2022-10-26T13:02:02.345Z,100434.75
2022-10-26T13:05:11.646Z,100432.06
2022-10-26T13:07:42.512Z,100432.06
2022-10-26T13:10:22.738Z,100445.47
2022-10-26T13:12:53.900Z,100447.56
2022-10-26T13:15:25.822Z,100449.22
2022-10-26T13:18:10.589Z,100445.47
2022-10-26T13:20:53.171Z,100443.78
2022-10-26T13:23:27.351Z,100445.81
2022-10-26T13:26:05.460Z,100452.41
2022-10-26T13:28:44.102Z,100454.28
2022-10-26T13:31:20.817Z,100459.03
2022-10-26T13:33:54.777Z,100456.97
2022-10-26T13:36:30.952Z,100457.31
2022-10-26T13:39:04.807Z,100452.31
2022-10-26T13:41:38.165Z,100455.13
2022-10-26T13:44:14.059Z,100444.00
2022-10-26T13:46:46.864Z,100447.69
2022-10-26T13:49:23.114Z,100452.63
2022-10-26T13:51:54.055Z,100452.03
2022-10-26T13:54:29.884Z,100460.47
2022-10-26T13:57:07.245Z,100462.13
2022-10-26T13:59:40.158Z,100465.25
2022-10-26T14:02:17.639Z,100469.41
2022-10-26T14:04:53.644Z,100472.53
2022-10-26T14:07:25.477Z,100477.53
2022-10-26T14:09:57.199Z,100478.19
2022-10-26T14:12:29.873Z,100478.81
2022-10-26T14:15:04.614Z,100483.16
2022-10-26T14:17:33.058Z,100477.78
2022-10-26T14:20:19.916Z,100476.13
2022-10-26T14:22:48.238Z,100480.91
2022-10-26T14:25:31.046Z,100478.66
2022-10-26T14:28:23.170Z,100488.81
2022-10-26T14:30:52.623Z,100475.59
2022-10-26T14:33:21.727Z,100491.50
2022-10-26T14:36:08.817Z,100483.88
2022-10-26T14:38:44.989Z,100494.59
2022-10-26T14:41:18.313Z,100491.28
2022-10-26T14:43:47.208Z,100486.13
2022-10-26T14:46:17.597Z,100492.13
2022-10-26T14:48:54.625Z,100504.13
2022-10-26T14:51:39.288Z,100508.31
2022-10-26T14:54:21.536Z,100489.94
2022-10-26T14:56:51.231Z,100503.59
2022-10-26T14:59:26.063Z,100502.16
2022-10-26T15:01:57.001Z,100509.56
2022-10-26T15:04:35.035Z,100509.19
2022-10-26T15:07:18.657Z,100511.66
2022-10-26T15:09:47.980Z,100515.59
2022-10-26T15:12:30.045Z,100506.31
2022-10-26T15:15:06.686Z,100508.81
2022-10-26T15:17:39.637Z,100513.59
2022-10-26T15:20:15.885Z,100520.22
2022-10-26T15:22:51.326Z,100515.47
2022-10-26T15:25:23.017Z,100525.78
2022-10-26T15:27:53.373Z,100526.63
2022-10-26T15:30:25.676Z,100537.34
2022-10-26T15:32:55.457Z,100535.69
2022-10-26T15:35:35.492Z,100527.66
2022-10-26T15:38:03.652Z,100531.78
2022-10-26T15:40:33.180Z,100542.13
2022-10-26T15:43:05.501Z,100543.97
2022-10-26T15:45:49.192Z,100542.56
2022-10-26T15:48:21.837Z,100548.97
2022-10-26T15:50:49.994Z,100549.19
2022-10-26T15:53:45.105Z,100551.03
2022-10-26T15:56:17.435Z,100550.22
2022-10-26T15:58:47.554Z,100554.75
2022-10-26T16:01:18.013Z,100549.41
2022-10-26T16:03:46.265Z,100549.59
2022-10-26T16:06:17.931Z,100541.13
2022-10-26T16:08:50.353Z,100551.88
2022-10-26T16:11:18.490Z,100553.53
2022-10-26T16:13:47.888Z,100556.81
2022-10-26T16:16:24.380Z,100557.41
2022-10-26T16:19:06.190Z,100558.69
2022-10-26T16:21:41.862Z,100561.38
2022-10-26T16:24:11.742Z,100563.44
2022-10-26T16:26:39.843Z,100556.19
2022-10-26T16:29:09.330Z,100563.63
2022-10-26T16:31:37.367Z,100564.69
2022-10-26T16:34:05.390Z,100578.31
2022-10-26T16:36:34.690Z,100567.78
2022-10-26T16:41:35.934Z,100581.19
2022-10-26T16:44:03.956Z,100583.50
2022-10-26T16:46:33.481Z,100580.19
2022-10-26T16:49:01.553Z,100589.09
2022-10-26T16:51:29.864Z,100585.13
2022-10-26T16:53:58.592Z,100581.63
2022-10-26T16:56:30.974Z,100581.22
2022-10-26T16:59:01.607Z,100590.72
2022-10-26T17:01:29.675Z,100589.91
2022-10-26T17:04:01.053Z,100589.91
2022-10-26T17:06:29.012Z,100600.66
2022-10-26T17:08:57.022Z,100590.50
2022-10-26T17:11:25.063Z,100595.88
2022-10-26T17:13:55.660Z,100603.72
2022-10-26T17:16:25.572Z,100603.72
2022-10-26T17:18:54.364Z,100599.16
2022-10-26T17:21:31.095Z,100603.50
2022-10-26T17:24:00.352Z,100598.13
2022-10-26T17:26:28.771Z,100599.38
2022-10-26T17:28:58.313Z,100607.22
2022-10-26T17:31:27.146Z,100605.16
2022-10-26T17:33:56.934Z,100608.66
2022-10-26T17:36:27.613Z,100610.31
2022-10-26T17:38:57.592Z,100611.56
2022-10-26T17:41:26.235Z,100610.72
2022-10-26T17:43:55.009Z,100612.19
2022-10-26T17:46:24.974Z,100612.78
2022-10-26T17:48:56.657Z,100606.84
2022-10-26T17:51:27.277Z,100615.09
2022-10-26T17:53:56.034Z,100619.63
2022-10-26T17:56:26.100Z,100613.66
2022-10-26T17:58:55.030Z,100617.38
2022-10-26T18:01:23.784Z,100626.25
2022-10-26T18:03:52.912Z,100626.88
2022-10-26T18:06:22.308Z,100628.09
2022-10-26T18:08:51.983Z,100632.88
2022-10-26T18:11:26.775Z,100639.06
2022-10-26T18:13:56.312Z,100639.28
2022-10-26T18:16:26.122Z,100644.66
2022-10-26T18:19:00.507Z,100640.09
2022-10-26T18:21:30.404Z,100643.63
2022-10-26T18:24:01.554Z,100641.13
2022-10-26T18:26:31.100Z,100645.06
2022-10-26T18:29:00.627Z,100646.09
2022-10-26T18:31:31.229Z,100641.53
2022-10-26T18:34:00.905Z,100651.03
2022-10-26T18:36:29.936Z,100644.22
2022-10-26T18:38:59.385Z,100650.84
2022-10-26T18:41:28.869Z,100645.28
2022-10-26T18:43:58.979Z,100657.22
2022-10-26T18:46:28.957Z,100655.19
2022-10-26T18:48:58.025Z,100650.44
2022-10-26T18:51:29.087Z,100660.13
2022-10-26T18:53:58.078Z,100663.63
2022-10-26T18:56:26.319Z,100658.25
2022-10-26T18:58:58.858Z,100658.44
2022-10-26T19:01:34.791Z,100661.56
2022-10-26T19:04:04.775Z,100672.88
2022-10-26T19:06:35.033Z,100672.25
2022-10-26T19:09:03.608Z,100686.06
2022-10-26T19:11:32.657Z,100676.19
2022-10-26T19:14:02.421Z,100687.31
2022-10-26T19:16:45.026Z,100680.03
2022-10-26T19:19:13.992Z,100681.66
2022-10-26T19:21:42.367Z,100682.25
2022-10-26T19:24:15.100Z,100683.91
2022-10-26T19:26:44.181Z,100685.53
2022-10-26T19:29:16.385Z,100696.00
2022-10-26T19:31:45.390Z,100692.09
2022-10-26T19:34:15.028Z,100700.13
2022-10-26T19:36:47.146Z,100703.84
2022-10-26T19:39:17.107Z,100706.53
2022-10-26T19:41:46.364Z,100713.72
2022-10-26T19:44:17.938Z,100707.34
2022-10-26T19:46:47.645Z,100713.34
2022-10-26T19:49:17.644Z,100708.59
2022-10-26T19:51:46.947Z,100716.44
2022-10-26T19:54:15.741Z,100715.59
2022-10-26T19:56:43.785Z,100728.81
2022-10-26T19:59:12.312Z,100716.22
2022-10-26T20:01:41.702Z,100721.78
2022-10-26T20:04:09.765Z,100720.13
2022-10-26T20:06:37.837Z,100724.06
2022-10-26T20:09:09.056Z,100724.25
2022-10-26T20:11:38.675Z,100725.28
2022-10-26T20:14:07.497Z,100728.78
2022-10-26T20:16:35.532Z,100725.47
2022-10-26T20:19:04.885Z,100722.78
2022-10-26T20:21:32.947Z,100717.63
2022-10-26T20:24:09.849Z,100719.09
2022-10-26T20:26:38.524Z,100721.56
2022-10-26T20:29:06.779Z,100725.09
2022-10-26T20:31:34.802Z,100732.94
2022-10-26T20:34:04.278Z,100726.09
2022-10-26T20:36:32.344Z,100731.47
2022-10-26T20:39:01.196Z,100730.63
2022-10-26T20:41:29.650Z,100727.31
2022-10-26T20:43:58.232Z,100732.69
2022-10-26T20:46:28.164Z,100724.84
2022-10-26T20:48:56.713Z,100734.09
2022-10-26T20:51:47.552Z,100736.38
2022-10-26T20:54:26.370Z,100737.16
2022-10-26T20:56:56.659Z,100732.56
2022-10-26T21:02:05.706Z,100733.94
2022-10-26T21:04:33.665Z,100746.09
2022-10-26T21:07:03.434Z,100746.22
2022-10-26T21:09:34.246Z,100739.38
2022-10-26T21:12:05.002Z,100744.03
2022-10-26T21:14:35.912Z,100753.69
2022-10-26T21:17:03.831Z,100753.63
2022-10-26T21:19:31.803Z,100747.41
2022-10-26T21:21:59.843Z,100750.84
2022-10-26T21:24:30.612Z,100754.31
2022-10-26T21:26:59.275Z,100754.88
2022-10-26T21:29:27.821Z,100759.34
2022-10-26T21:31:55.819Z,100756.59
2022-10-26T21:34:26.769Z,100752.84
2022-10-26T21:36:54.856Z,100752.75
2022-10-26T21:39:22.811Z,100765.66
2022-10-26T21:41:52.182Z,100764.38
2022-10-26T21:44:39.595Z,100766.59
2022-10-26T21:47:08.193Z,100770.66
2022-10-26T21:49:36.718Z,100765.25
2022-10-26T21:52:05.021Z,100765.81
2022-10-26T21:54:33.058Z,100761.25
2022-10-26T21:57:02.476Z,100761.78
2022-10-26T21:59:30.418Z,100759.25
2022-10-26T22:01:58.819Z,100762.47
2022-10-26T22:04:27.097Z,100762.00
2022-10-26T22:06:55.119Z,100754.00
2022-10-26T22:09:23.112Z,100771.88
2022-10-26T22:11:51.693Z,100765.88
2022-10-26T22:14:21.549Z,100763.19
2022-10-26T22:16:49.500Z,100758.03
2022-10-26T22:19:17.481Z,100757.44
2022-10-26T22:21:45.543Z,100765.44
2022-10-26T22:24:22.388Z,100758.25
2022-10-26T22:26:50.320Z,100758.44
2022-10-26T22:29:18.634Z,100755.94
2022-10-26T22:31:48.324Z,100752.44
2022-10-26T22:34:17.688Z,100758.81
2022-10-26T22:36:45.820Z,100740.66
2022-10-26T22:39:14.508Z,100748.66
2022-10-26T22:41:42.765Z,100750.69
2022-10-26T22:44:11.045Z,100753.94
2022-10-26T22:46:39.114Z,100758.81
2022-10-26T22:49:08.516Z,100760.19
2022-10-26T22:51:36.525Z,100762.41
2022-10-26T22:54:05.911Z,100759.47
2022-10-26T22:56:35.925Z,100765.34
2022-10-26T22:59:04.334Z,100773.44
2022-10-26T23:01:34.884Z,100778.50
2022-10-26T23:04:03.151Z,100777.22
2022-10-26T23:06:33.479Z,100780.25
2022-10-26T23:09:01.633Z,100774.91
2022-10-26T23:11:30.372Z,100769.59
2022-10-26T23:14:00.547Z,100776.56
2022-10-26T23:16:29.769Z,100783.41
2022-10-26T23:18:57.755Z,100786.91
2022-10-26T23:24:02.065Z,100784.84
2022-10-26T23:26:31.755Z,100781.16
2022-10-26T23:28:59.720Z,100782.00
2022-10-26T23:31:30.741Z,100786.16
2022-10-26T23:33:58.911Z,100780.44
2022-10-26T23:36:27.032Z,100770.88
2022-10-26T23:38:55.081Z,100769.50
2022-10-26T23:41:25.650Z,100764.44
2022-10-26T23:43:53.687Z,100762.84
2022-10-26T23:46:21.685Z,100762.31
2022-10-26T23:48:49.654Z,100763.22
2022-10-26T23:51:17.806Z,100749.31
2022-10-26T23:53:45.794Z,100755.13
2022-10-26T23:56:13.812Z,100752.09
2022-10-26T23:58:43.126Z,100753.53
